sensor_id;sensor_type;location;lat;lon;timestamp;temperature;humidity
1405;DHT22;697;51.114;6.542;2023-04-15T00:01:57;10.30;71.80
1405;DHT22;697;51.114;6.542;2023-04-15T00:04:24;10.30;72.20
1405;DHT22;697;51.114;6.542;2023-04-15T00:06:51;10.20;72.40
1405;DHT22;697;51.114;6.542;2023-04-15T00:09:19;10.20;72.80
1405;DHT22;697;51.114;6.542;2023-04-15T00:11:45;10.20;73.20
1405;DHT22;697;51.114;6.542;2023-04-15T00:14:12;10.20;73.50
1405;DHT22;697;51.114;6.542;2023-04-15T00:16:41;10.20;73.90
1405;DHT22;697;51.114;6.542;2023-04-15T00:19:07;10.20;74.10
1405;DHT22;697;51.114;6.542;2023-04-15T00:21:34;10.10;73.40
1405;DHT22;697;51.114;6.542;2023-04-15T00:24:01;10.00;72.80
1405;DHT22;697;51.114;6.542;2023-04-15T00:26:28;9.90;73.50
1405;DHT22;697;51.114;6.542;2023-04-15T00:28:54;9.80;73.00
1405;DHT22;697;51.114;6.542;2023-04-15T00:31:21;9.70;72.40
1405;DHT22;697;51.114;6.542;2023-04-15T00:33:49;9.60;73.40
1405;DHT22;697;51.114;6.542;2023-04-15T00:36:16;9.60;73.60
1405;DHT22;697;51.114;6.542;2023-04-15T00:38:43;9.50;73.40
1405;DHT22;697;51.114;6.542;2023-04-15T00:41:10;9.50;73.70
1405;DHT22;697;51.114;6.542;2023-04-15T00:43:37;9.50;74.30
1405;DHT22;697;51.114;6.542;2023-04-15T00:46:05;9.40;74.60
1405;DHT22;697;51.114;6.542;2023-04-15T00:48:32;9.40;74.70
1405;DHT22;697;51.114;6.542;2023-04-15T00:51:00;9.40;75.20
1405;DHT22;697;51.114;6.542;2023-04-15T00:53:27;9.40;75.40
1405;DHT22;697;51.114;6.542;2023-04-15T00:55:54;9.40;75.80
1405;DHT22;697;51.114;6.542;2023-04-15T00:58:22;9.40;75.90
1405;DHT22;697;51.114;6.542;2023-04-15T01:00:49;9.40;76.10
1405;DHT22;697;51.114;6.542;2023-04-15T01:03:18;9.40;76.70
1405;DHT22;697;51.114;6.542;2023-04-15T01:05:45;9.40;77.10
1405;DHT22;697;51.114;6.542;2023-04-15T01:08:13;9.30;77.20
1405;DHT22;697;51.114;6.542;2023-04-15T01:10:40;9.40;77.60
1405;DHT22;697;51.114;6.542;2023-04-15T01:13:08;9.30;77.80
1405;DHT22;697;51.114;6.542;2023-04-15T01:15:35;9.40;78.30
1405;DHT22;697;51.114;6.542;2023-04-15T01:18:02;9.40;78.70
1405;DHT22;697;51.114;6.542;2023-04-15T01:20:29;9.40;78.90
1405;DHT22;697;51.114;6.542;2023-04-15T01:22:55;9.40;78.70
1405;DHT22;697;51.114;6.542;2023-04-15T01:25:30;9.30;79.00
1405;DHT22;697;51.114;6.542;2023-04-15T01:27:57;9.30;78.10
1405;DHT22;697;51.114;6.542;2023-04-15T01:30:24;9.20;77.90
1405;DHT22;697;51.114;6.542;2023-04-15T01:32:52;9.10;77.90
1405;DHT22;697;51.114;6.542;2023-04-15T01:35:19;9.10;77.90
1405;DHT22;697;51.114;6.542;2023-04-15T01:37:47;9.00;78.30
1405;DHT22;697;51.114;6.542;2023-04-15T01:40:14;8.90;78.40
1405;DHT22;697;51.114;6.542;2023-04-15T01:42:42;8.90;78.60
1405;DHT22;697;51.114;6.542;2023-04-15T01:45:10;8.90;79.00
1405;DHT22;697;51.114;6.542;2023-04-15T01:47:37;8.80;79.10
1405;DHT22;697;51.114;6.542;2023-04-15T01:50:04;8.80;79.40
1405;DHT22;697;51.114;6.542;2023-04-15T01:52:31;8.70;79.60
1405;DHT22;697;51.114;6.542;2023-04-15T01:54:58;8.70;80.50
1405;DHT22;697;51.114;6.542;2023-04-15T01:57:24;8.60;79.40
1405;DHT22;697;51.114;6.542;2023-04-15T01:59:52;8.60;79.50
1405;DHT22;697;51.114;6.542;2023-04-15T02:02:19;8.50;79.60
1405;DHT22;697;51.114;6.542;2023-04-15T02:04:46;8.50;79.80
1405;DHT22;697;51.114;6.542;2023-04-15T02:07:12;8.50;80.10
1405;DHT22;697;51.114;6.542;2023-04-15T02:09:39;8.50;80.40
1405;DHT22;697;51.114;6.542;2023-04-15T02:12:06;8.40;80.40
1405;DHT22;697;51.114;6.542;2023-04-15T02:14:33;8.40;80.60
1405;DHT22;697;51.114;6.542;2023-04-15T02:17:01;8.40;80.60
1405;DHT22;697;51.114;6.542;2023-04-15T02:19:31;8.40;81.20
1405;DHT22;697;51.114;6.542;2023-04-15T02:21:58;8.40;81.60
1405;DHT22;697;51.114;6.542;2023-04-15T02:24:26;8.30;81.60
1405;DHT22;697;51.114;6.542;2023-04-15T02:26:53;8.30;81.50
1405;DHT22;697;51.114;6.542;2023-04-15T02:29:20;8.20;81.60
1405;DHT22;697;51.114;6.542;2023-04-15T02:31:47;8.20;81.70
1405;DHT22;697;51.114;6.542;2023-04-15T02:34:15;8.20;82.10
1405;DHT22;697;51.114;6.542;2023-04-15T02:36:42;8.10;82.00
1405;DHT22;697;51.114;6.542;2023-04-15T02:39:09;8.10;81.90
1405;DHT22;697;51.114;6.542;2023-04-15T02:41:37;8.10;82.00
1405;DHT22;697;51.114;6.542;2023-04-15T02:44:04;8.10;82.00
1405;DHT22;697;51.114;6.542;2023-04-15T02:46:31;8.10;82.10
1405;DHT22;697;51.114;6.542;2023-04-15T02:48:58;8.10;82.50
1405;DHT22;697;51.114;6.542;2023-04-15T02:51:29;8.10;82.90
1405;DHT22;697;51.114;6.542;2023-04-15T02:53:56;8.10;83.00
1405;DHT22;697;51.114;6.542;2023-04-15T02:56:23;8.10;83.10
1405;DHT22;697;51.114;6.542;2023-04-15T02:58:50;8.10;83.50
1405;DHT22;697;51.114;6.542;2023-04-15T03:01:20;8.00;83.40
1405;DHT22;697;51.114;6.542;2023-04-15T03:03:47;8.00;83.30
1405;DHT22;697;51.114;6.542;2023-04-15T03:06:13;8.00;83.10
1405;DHT22;697;51.114;6.542;2023-04-15T03:08:42;7.90;83.00
1405;DHT22;697;51.114;6.542;2023-04-15T03:11:08;7.90;83.20
1405;DHT22;697;51.114;6.542;2023-04-15T03:13:35;7.90;83.60
1405;DHT22;697;51.114;6.542;2023-04-15T03:16:04;7.80;83.80
1405;DHT22;697;51.114;6.542;2023-04-15T03:18:31;7.80;83.70
1405;DHT22;697;51.114;6.542;2023-04-15T03:20:58;7.80;83.80
1405;DHT22;697;51.114;6.542;2023-04-15T03:23:24;7.80;83.70
1405;DHT22;697;51.114;6.542;2023-04-15T03:25:52;7.80;83.90
1405;DHT22;697;51.114;6.542;2023-04-15T03:28:21;7.80;84.00
1405;DHT22;697;51.114;6.542;2023-04-15T03:30:48;7.70;84.00
1405;DHT22;697;51.114;6.542;2023-04-15T03:33:15;7.80;84.30
1405;DHT22;697;51.114;6.542;2023-04-15T03:35:41;7.80;84.10
1405;DHT22;697;51.114;6.542;2023-04-15T03:38:08;7.80;84.10
1405;DHT22;697;51.114;6.542;2023-04-15T03:40:35;7.70;84.30
1405;DHT22;697;51.114;6.542;2023-04-15T03:43:03;7.70;84.60
1405;DHT22;697;51.114;6.542;2023-04-15T03:45:30;7.70;84.40
1405;DHT22;697;51.114;6.542;2023-04-15T03:47:56;7.60;84.00
1405;DHT22;697;51.114;6.542;2023-04-15T03:50:23;7.60;84.40
1405;DHT22;697;51.114;6.542;2023-04-15T03:52:50;7.60;84.60
1405;DHT22;697;51.114;6.542;2023-04-15T03:55:17;7.60;84.50
1405;DHT22;697;51.114;6.542;2023-04-15T03:57:44;7.60;84.70
1405;DHT22;697;51.114;6.542;2023-04-15T04:00:12;7.60;85.30
1405;DHT22;697;51.114;6.542;2023-04-15T04:02:40;7.60;85.70
1405;DHT22;697;51.114;6.542;2023-04-15T04:05:07;7.60;85.70
1405;DHT22;697;51.114;6.542;2023-04-15T04:07:34;7.50;85.50
1405;DHT22;697;51.114;6.542;2023-04-15T04:10:02;7.50;86.00
1405;DHT22;697;51.114;6.542;2023-04-15T04:12:29;7.50;86.20
1405;DHT22;697;51.114;6.542;2023-04-15T04:14:55;7.50;86.10
1405;DHT22;697;51.114;6.542;2023-04-15T04:17:24;7.50;86.10
1405;DHT22;697;51.114;6.542;2023-04-15T04:19:51;7.50;86.10
1405;DHT22;697;51.114;6.542;2023-04-15T04:22:21;7.50;86.40
1405;DHT22;697;51.114;6.542;2023-04-15T04:24:48;7.50;86.80
1405;DHT22;697;51.114;6.542;2023-04-15T04:27:15;7.50;87.20
1405;DHT22;697;51.114;6.542;2023-04-15T04:29:42;7.50;87.70
1405;DHT22;697;51.114;6.542;2023-04-15T04:32:08;7.50;88.20
1405;DHT22;697;51.114;6.542;2023-04-15T04:34:37;7.50;88.70
1405;DHT22;697;51.114;6.542;2023-04-15T04:37:04;7.50;88.90
1405;DHT22;697;51.114;6.542;2023-04-15T04:39:31;7.50;89.00
1405;DHT22;697;51.114;6.542;2023-04-15T04:41:58;7.50;89.20
1405;DHT22;697;51.114;6.542;2023-04-15T04:44:25;7.50;89.70
1405;DHT22;697;51.114;6.542;2023-04-15T04:46:52;7.50;89.60
1405;DHT22;697;51.114;6.542;2023-04-15T04:49:19;7.50;89.50
1405;DHT22;697;51.114;6.542;2023-04-15T04:51:47;7.40;89.20
1405;DHT22;697;51.114;6.542;2023-04-15T04:54:14;7.40;88.50
1405;DHT22;697;51.114;6.542;2023-04-15T04:56:40;7.40;88.00
1405;DHT22;697;51.114;6.542;2023-04-15T04:59:07;7.30;87.80
1405;DHT22;697;51.114;6.542;2023-04-15T05:01:34;7.30;88.20
1405;DHT22;697;51.114;6.542;2023-04-15T05:04:01;7.30;88.50
1405;DHT22;697;51.114;6.542;2023-04-15T05:06:29;7.30;88.50
1405;DHT22;697;51.114;6.542;2023-04-15T05:08:58;7.30;88.50
1405;DHT22;697;51.114;6.542;2023-04-15T05:11:26;7.20;88.20
1405;DHT22;697;51.114;6.542;2023-04-15T05:13:53;7.20;88.50
1405;DHT22;697;51.114;6.542;2023-04-15T05:16:19;7.20;88.80
1405;DHT22;697;51.114;6.542;2023-04-15T05:18:46;7.20;89.40
1405;DHT22;697;51.114;6.542;2023-04-15T05:21:13;7.20;89.80
1405;DHT22;697;51.114;6.542;2023-04-15T05:23:40;7.20;90.20
1405;DHT22;697;51.114;6.542;2023-04-15T05:26:08;7.30;90.30
1405;DHT22;697;51.114;6.542;2023-04-15T05:28:34;7.30;90.60
1405;DHT22;697;51.114;6.542;2023-04-15T05:31:01;7.30;90.70
1405;DHT22;697;51.114;6.542;2023-04-15T05:33:28;7.40;91.00
1405;DHT22;697;51.114;6.542;2023-04-15T05:35:55;7.40;91.30
1405;DHT22;697;51.114;6.542;2023-04-15T05:38:21;7.50;91.50
1405;DHT22;697;51.114;6.542;2023-04-15T05:40:48;7.60;91.50
1405;DHT22;697;51.114;6.542;2023-04-15T05:43:16;7.60;91.50
1405;DHT22;697;51.114;6.542;2023-04-15T05:45:43;7.70;91.80
1405;DHT22;697;51.114;6.542;2023-04-15T05:48:10;7.80;91.90
1405;DHT22;697;51.114;6.542;2023-04-15T05:50:39;7.90;92.00
1405;DHT22;697;51.114;6.542;2023-04-15T05:53:06;7.90;92.10
1405;DHT22;697;51.114;6.542;2023-04-15T05:55:32;8.00;92.00
1405;DHT22;697;51.114;6.542;2023-04-15T05:57:59;8.10;92.20
1405;DHT22;697;51.114;6.542;2023-04-15T06:00:27;8.10;92.40
1405;DHT22;697;51.114;6.542;2023-04-15T06:02:55;8.20;92.30
1405;DHT22;697;51.114;6.542;2023-04-15T06:05:22;8.30;92.40
1405;DHT22;697;51.114;6.542;2023-04-15T06:07:48;8.30;92.40
1405;DHT22;697;51.114;6.542;2023-04-15T06:10:15;8.40;92.60
1405;DHT22;697;51.114;6.542;2023-04-15T06:12:42;8.50;92.80
1405;DHT22;697;51.114;6.542;2023-04-15T06:15:09;8.60;93.00
1405;DHT22;697;51.114;6.542;2023-04-15T06:17:37;8.80;93.20
1405;DHT22;697;51.114;6.542;2023-04-15T06:20:05;8.90;93.40
1405;DHT22;697;51.114;6.542;2023-04-15T06:22:33;9.00;93.50
1405;DHT22;697;51.114;6.542;2023-04-15T06:25:00;9.10;93.70
1405;DHT22;697;51.114;6.542;2023-04-15T06:27:26;9.20;93.60
1405;DHT22;697;51.114;6.542;2023-04-15T06:29:53;9.30;93.70
1405;DHT22;697;51.114;6.542;2023-04-15T06:32:20;9.50;93.90
1405;DHT22;697;51.114;6.542;2023-04-15T06:34:48;9.60;93.90
1405;DHT22;697;51.114;6.542;2023-04-15T06:37:15;9.60;93.70
1405;DHT22;697;51.114;6.542;2023-04-15T06:39:41;9.70;93.60
1405;DHT22;697;51.114;6.542;2023-04-15T06:42:09;9.80;93.60
1405;DHT22;697;51.114;6.542;2023-04-15T06:44:36;9.80;93.50
1405;DHT22;697;51.114;6.542;2023-04-15T06:47:03;10.00;92.90
1405;DHT22;697;51.114;6.542;2023-04-15T06:49:29;10.00;92.90
1405;DHT22;697;51.114;6.542;2023-04-15T06:51:58;10.00;92.90
1405;DHT22;697;51.114;6.542;2023-04-15T06:54:25;10.10;93.00
1405;DHT22;697;51.114;6.542;2023-04-15T06:56:51;10.20;93.00
1405;DHT22;697;51.114;6.542;2023-04-15T06:59:18;10.30;92.90
1405;DHT22;697;51.114;6.542;2023-04-15T07:01:45;10.40;92.60
1405;DHT22;697;51.114;6.542;2023-04-15T07:04:11;10.50;92.60
1405;DHT22;697;51.114;6.542;2023-04-15T07:06:38;10.60;92.70
1405;DHT22;697;51.114;6.542;2023-04-15T07:09:07;10.70;92.80
1405;DHT22;697;51.114;6.542;2023-04-15T07:11:34;10.90;92.90
1405;DHT22;697;51.114;6.542;2023-04-15T07:14:01;11.00;92.90
1405;DHT22;697;51.114;6.542;2023-04-15T07:16:28;11.20;93.00
1405;DHT22;697;51.114;6.542;2023-04-15T07:18:55;11.40;92.60
1405;DHT22;697;51.114;6.542;2023-04-15T07:21:22;11.50;92.40
1405;DHT22;697;51.114;6.542;2023-04-15T07:23:49;11.70;92.10
1405;DHT22;697;51.114;6.542;2023-04-15T07:26:17;11.90;91.80
1405;DHT22;697;51.114;6.542;2023-04-15T07:28:44;12.00;91.60
1405;DHT22;697;51.114;6.542;2023-04-15T07:31:11;12.20;91.40
1405;DHT22;697;51.114;6.542;2023-04-15T07:33:39;12.40;90.90
1405;DHT22;697;51.114;6.542;2023-04-15T07:36:06;12.60;90.70
1405;DHT22;697;51.114;6.542;2023-04-15T07:38:33;12.80;90.50
1405;DHT22;697;51.114;6.542;2023-04-15T07:41:00;13.00;90.00
1405;DHT22;697;51.114;6.542;2023-04-15T07:43:28;13.20;88.90
1405;DHT22;697;51.114;6.542;2023-04-15T07:45:55;13.40;87.80
1405;DHT22;697;51.114;6.542;2023-04-15T07:48:21;13.50;86.70
1405;DHT22;697;51.114;6.542;2023-04-15T07:50:48;13.60;85.30
1405;DHT22;697;51.114;6.542;2023-04-15T07:53:15;13.70;84.40
1405;DHT22;697;51.114;6.542;2023-04-15T07:55:41;13.80;84.60
1405;DHT22;697;51.114;6.542;2023-04-15T07:58:08;13.90;84.10
1405;DHT22;697;51.114;6.542;2023-04-15T08:00:36;14.10;83.20
1405;DHT22;697;51.114;6.542;2023-04-15T08:03:03;14.10;81.80
1405;DHT22;697;51.114;6.542;2023-04-15T08:05:30;14.20;81.70
1405;DHT22;697;51.114;6.542;2023-04-15T08:07:57;14.30;81.60
1405;DHT22;697;51.114;6.542;2023-04-15T08:10:24;14.40;82.00
1405;DHT22;697;51.114;6.542;2023-04-15T08:12:51;14.60;81.50
1405;DHT22;697;51.114;6.542;2023-04-15T08:15:18;14.60;80.50
1405;DHT22;697;51.114;6.542;2023-04-15T08:17:47;14.70;79.90
1405;DHT22;697;51.114;6.542;2023-04-15T08:20:14;14.80;79.30
1405;DHT22;697;51.114;6.542;2023-04-15T08:22:40;14.80;78.70
1405;DHT22;697;51.114;6.542;2023-04-15T08:25:07;14.90;77.50
1405;DHT22;697;51.114;6.542;2023-04-15T08:27:34;14.90;76.60
1405;DHT22;697;51.114;6.542;2023-04-15T08:30:02;15.10;74.80
1405;DHT22;697;51.114;6.542;2023-04-15T08:32:29;15.20;73.80
1405;DHT22;697;51.114;6.542;2023-04-15T08:34:57;15.30;73.40
1405;DHT22;697;51.114;6.542;2023-04-15T08:37:23;15.50;71.90
1405;DHT22;697;51.114;6.542;2023-04-15T08:39:51;15.70;71.50
1405;DHT22;697;51.114;6.542;2023-04-15T08:42:22;15.90;69.70
1405;DHT22;697;51.114;6.542;2023-04-15T08:44:50;15.90;68.40
1405;DHT22;697;51.114;6.542;2023-04-15T08:47:19;16.00;67.90
1405;DHT22;697;51.114;6.542;2023-04-15T08:49:47;16.10;67.80
1405;DHT22;697;51.114;6.542;2023-04-15T08:52:19;16.20;68.30
1405;DHT22;697;51.114;6.542;2023-04-15T08:54:47;16.40;67.90
1405;DHT22;697;51.114;6.542;2023-04-15T08:57:14;16.60;66.80
1405;DHT22;697;51.114;6.542;2023-04-15T08:59:41;16.60;64.60
1405;DHT22;697;51.114;6.542;2023-04-15T09:02:09;16.70;63.30
1405;DHT22;697;51.114;6.542;2023-04-15T09:04:36;16.70;62.30
1405;DHT22;697;51.114;6.542;2023-04-15T09:07:02;16.80;61.90
1405;DHT22;697;51.114;6.542;2023-04-15T09:09:30;16.80;61.70
1405;DHT22;697;51.114;6.542;2023-04-15T09:11:57;16.90;61.00
1405;DHT22;697;51.114;6.542;2023-04-15T09:14:24;17.00;60.60
1405;DHT22;697;51.114;6.542;2023-04-15T09:16:57;17.10;59.90
1405;DHT22;697;51.114;6.542;2023-04-15T09:19:24;17.30;59.50
1405;DHT22;697;51.114;6.542;2023-04-15T09:21:53;17.40;58.90
1405;DHT22;697;51.114;6.542;2023-04-15T09:24:21;17.50;58.20
1405;DHT22;697;51.114;6.542;2023-04-15T09:26:51;17.70;58.20
1405;DHT22;697;51.114;6.542;2023-04-15T09:29:18;17.80;57.30
1405;DHT22;697;51.114;6.542;2023-04-15T09:31:45;17.90;57.00
1405;DHT22;697;51.114;6.542;2023-04-15T09:34:12;18.00;55.50
1405;DHT22;697;51.114;6.542;2023-04-15T09:36:52;18.20;55.30
1405;DHT22;697;51.114;6.542;2023-04-15T09:39:19;18.40;55.30
1405;DHT22;697;51.114;6.542;2023-04-15T09:41:46;18.60;54.70
1405;DHT22;697;51.114;6.542;2023-04-15T09:44:23;18.90;54.40
1405;DHT22;697;51.114;6.542;2023-04-15T09:46:49;19.10;53.80
1405;DHT22;697;51.114;6.542;2023-04-15T09:49:16;19.30;53.00
1405;DHT22;697;51.114;6.542;2023-04-15T09:51:43;19.50;52.80
1405;DHT22;697;51.114;6.542;2023-04-15T09:54:10;19.60;50.70
1405;DHT22;697;51.114;6.542;2023-04-15T09:56:38;19.60;49.80
1405;DHT22;697;51.114;6.542;2023-04-15T09:59:06;19.80;49.70
1405;DHT22;697;51.114;6.542;2023-04-15T10:01:35;20.00;49.90
1405;DHT22;697;51.114;6.542;2023-04-15T10:04:03;20.10;49.30
1405;DHT22;697;51.114;6.542;2023-04-15T10:06:30;20.20;49.30
1405;DHT22;697;51.114;6.542;2023-04-15T10:08:57;20.30;48.50
1405;DHT22;697;51.114;6.542;2023-04-15T10:11:28;20.40;48.00
1405;DHT22;697;51.114;6.542;2023-04-15T10:13:55;20.50;47.30
1405;DHT22;697;51.114;6.542;2023-04-15T10:16:26;20.50;47.60
1405;DHT22;697;51.114;6.542;2023-04-15T10:18:55;20.50;46.70
1405;DHT22;697;51.114;6.542;2023-04-15T10:21:23;20.60;47.50
1405;DHT22;697;51.114;6.542;2023-04-15T10:23:50;20.80;48.30
1405;DHT22;697;51.114;6.542;2023-04-15T10:26:17;21.10;48.30
1405;DHT22;697;51.114;6.542;2023-04-15T10:28:44;21.50;47.10
1405;DHT22;697;51.114;6.542;2023-04-15T10:31:12;21.60;44.30
1405;DHT22;697;51.114;6.542;2023-04-15T10:33:39;21.70;45.00
1405;DHT22;697;51.114;6.542;2023-04-15T10:36:08;21.90;45.40
1405;DHT22;697;51.114;6.542;2023-04-15T10:38:37;22.20;45.50
1405;DHT22;697;51.114;6.542;2023-04-15T10:41:14;22.80;44.90
1405;DHT22;697;51.114;6.542;2023-04-15T10:43:46;23.10;42.10
1405;DHT22;697;51.114;6.542;2023-04-15T10:46:17;23.40;41.40
1405;DHT22;697;51.114;6.542;2023-04-15T10:48:48;23.70;40.00
1405;DHT22;697;51.114;6.542;2023-04-15T10:51:26;24.20;40.70
1405;DHT22;697;51.114;6.542;2023-04-15T10:53:56;24.50;39.10
1405;DHT22;697;51.114;6.542;2023-04-15T10:56:23;24.50;38.90
1405;DHT22;697;51.114;6.542;2023-04-15T10:58:50;24.80;39.40
1405;DHT22;697;51.114;6.542;2023-04-15T11:01:19;25.10;38.20
1405;DHT22;697;51.114;6.542;2023-04-15T11:03:47;25.30;37.10
1405;DHT22;697;51.114;6.542;2023-04-15T11:06:16;25.80;37.30
1405;DHT22;697;51.114;6.542;2023-04-15T11:08:54;26.40;36.20
1405;DHT22;697;51.114;6.542;2023-04-15T11:11:21;26.40;34.90
1405;DHT22;697;51.114;6.542;2023-04-15T11:13:49;25.90;34.30
1405;DHT22;697;51.114;6.542;2023-04-15T11:16:17;25.50;35.60
1405;DHT22;697;51.114;6.542;2023-04-15T11:18:53;25.30;36.20
1405;DHT22;697;51.114;6.542;2023-04-15T11:21:24;25.40;37.30
1405;DHT22;697;51.114;6.542;2023-04-15T11:23:51;25.80;36.40
1405;DHT22;697;51.114;6.542;2023-04-15T11:26:18;26.50;35.20
1405;DHT22;697;51.114;6.542;2023-04-15T11:28:45;27.20;33.90
1405;DHT22;697;51.114;6.542;2023-04-15T11:31:13;27.90;33.00
1405;DHT22;697;51.114;6.542;2023-04-15T11:33:44;28.10;31.30
1405;DHT22;697;51.114;6.542;2023-04-15T11:36:12;28.00;31.30
1405;DHT22;697;51.114;6.542;2023-04-15T11:38:43;27.60;31.80
1405;DHT22;697;51.114;6.542;2023-04-15T11:41:10;27.30;31.30
1405;DHT22;697;51.114;6.542;2023-04-15T11:43:37;26.60;32.40
1405;DHT22;697;51.114;6.542;2023-04-15T11:46:04;25.90;33.80
1405;DHT22;697;51.114;6.542;2023-04-15T11:48:32;25.20;35.20
1405;DHT22;697;51.114;6.542;2023-04-15T11:51:01;24.60;36.50
1405;DHT22;697;51.114;6.542;2023-04-15T11:53:39;24.00;37.20
1405;DHT22;697;51.114;6.542;2023-04-15T11:56:09;23.30;38.10
1405;DHT22;697;51.114;6.542;2023-04-15T11:58:37;23.00;38.90
1405;DHT22;697;51.114;6.542;2023-04-15T12:01:05;22.80;39.40
1405;DHT22;697;51.114;6.542;2023-04-15T12:03:37;22.90;39.70
1405;DHT22;697;51.114;6.542;2023-04-15T12:06:12;23.00;39.50
1405;DHT22;697;51.114;6.542;2023-04-15T12:08:57;22.90;39.80
1405;DHT22;697;51.114;6.542;2023-04-15T12:11:43;22.70;39.70
1405;DHT22;697;51.114;6.542;2023-04-15T12:14:21;22.40;40.10
1405;DHT22;697;51.114;6.542;2023-04-15T12:16:51;22.10;40.50
1405;DHT22;697;51.114;6.542;2023-04-15T12:19:22;22.10;41.40
1405;DHT22;697;51.114;6.542;2023-04-15T12:21:50;21.80;41.80
1405;DHT22;697;51.114;6.542;2023-04-15T12:24:20;21.50;42.90
1405;DHT22;697;51.114;6.542;2023-04-15T12:26:50;21.10;42.90
1405;DHT22;697;51.114;6.542;2023-04-15T12:29:18;20.80;44.10
1405;DHT22;697;51.114;6.542;2023-04-15T12:31:47;20.60;44.10
1405;DHT22;697;51.114;6.542;2023-04-15T12:34:15;20.40;44.90
1405;DHT22;697;51.114;6.542;2023-04-15T12:36:42;20.20;45.70
1405;DHT22;697;51.114;6.542;2023-04-15T12:39:08;19.90;45.90
1405;DHT22;697;51.114;6.542;2023-04-15T12:41:35;19.70;45.90
1405;DHT22;697;51.114;6.542;2023-04-15T12:44:03;19.50;46.40
1405;DHT22;697;51.114;6.542;2023-04-15T12:46:30;19.50;47.00
1405;DHT22;697;51.114;6.542;2023-04-15T12:48:57;19.30;46.70
1405;DHT22;697;51.114;6.542;2023-04-15T12:51:24;19.10;46.50
1405;DHT22;697;51.114;6.542;2023-04-15T12:53:51;18.90;47.40
1405;DHT22;697;51.114;6.542;2023-04-15T12:56:18;18.70;47.80
1405;DHT22;697;51.114;6.542;2023-04-15T12:58:45;18.40;48.50
1405;DHT22;697;51.114;6.542;2023-04-15T13:01:13;18.20;48.80
1405;DHT22;697;51.114;6.542;2023-04-15T13:03:39;18.10;50.00
1405;DHT22;697;51.114;6.542;2023-04-15T13:06:06;18.10;49.80
1405;DHT22;697;51.114;6.542;2023-04-15T13:08:33;18.00;49.50
1405;DHT22;697;51.114;6.542;2023-04-15T13:11:00;18.10;49.90
1405;DHT22;697;51.114;6.542;2023-04-15T13:13:26;18.10;50.50
1405;DHT22;697;51.114;6.542;2023-04-15T13:15:53;18.20;50.20
1405;DHT22;697;51.114;6.542;2023-04-15T13:18:22;18.40;49.90
1405;DHT22;697;51.114;6.542;2023-04-15T13:20:49;18.60;49.30
1405;DHT22;697;51.114;6.542;2023-04-15T13:23:16;18.80;49.10
1405;DHT22;697;51.114;6.542;2023-04-15T13:25:43;18.80;48.20
1405;DHT22;697;51.114;6.542;2023-04-15T13:28:10;18.80;48.50
1405;DHT22;697;51.114;6.542;2023-04-15T13:30:37;18.60;48.10
1405;DHT22;697;51.114;6.542;2023-04-15T13:33:05;18.40;48.60
1405;DHT22;697;51.114;6.542;2023-04-15T13:35:33;18.30;49.10
1405;DHT22;697;51.114;6.542;2023-04-15T13:38:00;18.10;49.80
1405;DHT22;697;51.114;6.542;2023-04-15T13:40:27;18.00;50.20
1405;DHT22;697;51.114;6.542;2023-04-15T13:42:53;17.90;50.70
1405;DHT22;697;51.114;6.542;2023-04-15T13:45:20;17.80;50.80
1405;DHT22;697;51.114;6.542;2023-04-15T13:47:48;17.70;51.00
1405;DHT22;697;51.114;6.542;2023-04-15T13:50:15;17.60;51.50
1405;DHT22;697;51.114;6.542;2023-04-15T13:52:43;17.50;51.40
1405;DHT22;697;51.114;6.542;2023-04-15T13:55:09;17.40;51.90
1405;DHT22;697;51.114;6.542;2023-04-15T13:57:36;17.30;52.10
1405;DHT22;697;51.114;6.542;2023-04-15T14:00:04;17.20;52.50
1405;DHT22;697;51.114;6.542;2023-04-15T14:02:30;17.20;53.30
1405;DHT22;697;51.114;6.542;2023-04-15T14:04:57;17.30;53.60
1405;DHT22;697;51.114;6.542;2023-04-15T14:07:24;17.50;53.70
1405;DHT22;697;51.114;6.542;2023-04-15T14:09:52;17.70;53.00
1405;DHT22;697;51.114;6.542;2023-04-15T14:12:19;17.70;52.30
1405;DHT22;697;51.114;6.542;2023-04-15T14:14:45;17.60;52.60
1405;DHT22;697;51.114;6.542;2023-04-15T14:17:12;17.40;52.30
1405;DHT22;697;51.114;6.542;2023-04-15T14:19:39;17.40;53.00
1405;DHT22;697;51.114;6.542;2023-04-15T14:22:05;17.40;52.90
1405;DHT22;697;51.114;6.542;2023-04-15T14:24:32;17.50;53.20
1405;DHT22;697;51.114;6.542;2023-04-15T14:27:00;17.40;53.00
1405;DHT22;697;51.114;6.542;2023-04-15T14:29:28;17.40;53.60
1405;DHT22;697;51.114;6.542;2023-04-15T14:31:55;17.30;53.60
1405;DHT22;697;51.114;6.542;2023-04-15T14:34:23;17.30;53.60
1405;DHT22;697;51.114;6.542;2023-04-15T14:36:50;17.20;54.00
1405;DHT22;697;51.114;6.542;2023-04-15T14:39:17;17.20;54.30
1405;DHT22;697;51.114;6.542;2023-04-15T14:41:44;17.10;54.30
1405;DHT22;697;51.114;6.542;2023-04-15T14:44:12;17.10;54.70
1405;DHT22;697;51.114;6.542;2023-04-15T14:46:39;17.10;54.70
1405;DHT22;697;51.114;6.542;2023-04-15T14:49:06;17.10;54.80
1405;DHT22;697;51.114;6.542;2023-04-15T14:51:33;17.10;54.80
1405;DHT22;697;51.114;6.542;2023-04-15T14:54:00;17.20;54.90
1405;DHT22;697;51.114;6.542;2023-04-15T14:56:26;17.20;54.80
1405;DHT22;697;51.114;6.542;2023-04-15T14:58:53;17.20;54.40
1405;DHT22;697;51.114;6.542;2023-04-15T15:01:21;17.00;54.70
1405;DHT22;697;51.114;6.542;2023-04-15T15:03:48;16.80;55.00
1405;DHT22;697;51.114;6.542;2023-04-15T15:06:15;16.80;55.30
1405;DHT22;697;51.114;6.542;2023-04-15T15:08:42;16.80;55.60
1405;DHT22;697;51.114;6.542;2023-04-15T15:11:08;16.80;55.60
1405;DHT22;697;51.114;6.542;2023-04-15T15:13:35;16.90;55.90
1405;DHT22;697;51.114;6.542;2023-04-15T15:16:02;17.00;56.00
1405;DHT22;697;51.114;6.542;2023-04-15T15:18:30;17.10;55.80
1405;DHT22;697;51.114;6.542;2023-04-15T15:20:57;17.00;55.30
1405;DHT22;697;51.114;6.542;2023-04-15T15:23:23;17.00;55.70
1405;DHT22;697;51.114;6.542;2023-04-15T15:25:50;16.90;56.10
1405;DHT22;697;51.114;6.542;2023-04-15T15:28:17;16.80;56.40
1405;DHT22;697;51.114;6.542;2023-04-15T15:30:43;16.70;56.10
1405;DHT22;697;51.114;6.542;2023-04-15T15:33:10;16.60;56.80
1405;DHT22;697;51.114;6.542;2023-04-15T15:35:38;16.70;57.00
1405;DHT22;697;51.114;6.542;2023-04-15T15:38:05;17.00;57.00
1405;DHT22;697;51.114;6.542;2023-04-15T15:40:32;17.40;56.30
1405;DHT22;697;51.114;6.542;2023-04-15T15:42:59;17.80;55.30
1405;DHT22;697;51.114;6.542;2023-04-15T15:45:26;18.10;54.50
1405;DHT22;697;51.114;6.542;2023-04-15T15:47:53;18.30;53.50
1405;DHT22;697;51.114;6.542;2023-04-15T15:50:21;18.40;53.30
1405;DHT22;697;51.114;6.542;2023-04-15T15:52:49;18.60;53.10
1405;DHT22;697;51.114;6.542;2023-04-15T15:55:16;18.70;52.70
1405;DHT22;697;51.114;6.542;2023-04-15T15:57:42;18.70;52.80
1405;DHT22;697;51.114;6.542;2023-04-15T16:00:10;18.60;53.20
1405;DHT22;697;51.114;6.542;2023-04-15T16:02:37;18.50;53.50
1405;DHT22;697;51.114;6.542;2023-04-15T16:05:04;18.50;53.80
1405;DHT22;697;51.114;6.542;2023-04-15T16:07:31;18.50;54.00
1405;DHT22;697;51.114;6.542;2023-04-15T16:09:59;18.50;53.80
1405;DHT22;697;51.114;6.542;2023-04-15T16:12:26;18.60;53.10
1405;DHT22;697;51.114;6.542;2023-04-15T16:14:53;18.70;53.60
1405;DHT22;697;51.114;6.542;2023-04-15T16:17:19;18.80;52.80
1405;DHT22;697;51.114;6.542;2023-04-15T16:19:46;18.80;52.30
1405;DHT22;697;51.114;6.542;2023-04-15T16:22:13;18.70;52.20
1405;DHT22;697;51.114;6.542;2023-04-15T16:24:39;18.50;52.20
1405;DHT22;697;51.114;6.542;2023-04-15T16:27:07;18.30;52.50